KLWV/LWV METAR and TAF weather

Enter ICAO airport designator
Station Type Date Time Source
KLWV METAR 2019/04/23 03:53 UTC NOAA

KLWV 230353Z AUTO 19009KT 10SM CLR 19/11 A3000 RMK AO2 SLPNO T01890106


Station Type Date Time Source
KLWV Decoded METAR 2019/04/23 03:53 UTC NOAA

LAWRENCEVILLE-VINCENNES INTERNATIONAL , IL, United States (KLWV) 38-46N 87-36W 131M
Apr 22, 2019 - 11:53 PM EDT / 2019.04.23 0353 UTC
Wind: from the S (190 degrees) at 10 MPH (9 KT):0
Visibility: 10 mile(s):0
Sky conditions: clear
Temperature: 66.0 F (18.9 C)
Dew Point: 51.1 F (10.6 C)
Relative Humidity: 58%
Pressure (altimeter): 30 in. Hg (1015 hPa)
ob: KLWV 230353Z AUTO 19009KT 10SM CLR 19/11 A3000 RMK AO2 SLPNO T01890106
cycle: 4

Station Type Date Time Source
KLWV TAF UTC NOAA

Error!

Example: see airport list